Time;durP1;ratioP1;P1;durP2;ratioP2;P2;SDS_P1;SDS_P2;PMS_P1;PMS_P2;Temp;Humidity;BMP_temperature;BMP_pressure;BME280_temperature;BME280_humidity;BME280_pressure;Samples;Min_cycle;Max_cycle;Signal;HPM_P1;HPM_P2
2022/11/16 00:01:35;;;;;;;2.67;1.90;;;21.10;63.80;;;;;;4974122;28;93028;-85
2022/11/16 00:04:03;;;;;;;2.33;1.77;;;21.10;63.80;;;;;;4971777;28;92232;-85
2022/11/16 00:06:29;;;;;;;4.38;1.95;;;21.10;63.70;;;;;;4980575;28;92738;-85
2022/11/16 00:11:41;;;;;;;2.88;1.75;;;21.10;63.70;;;;;;4971233;28;92386;-85
2022/11/16 00:14:07;;;;;;;3.33;1.90;;;21.10;63.70;;;;;;4971408;28;92490;-84
2022/11/16 00:16:33;;;;;;;6.18;2.38;;;21.10;64.60;;;;;;4963103;28;92166;-85
2022/11/16 00:19:02;;;;;;;2.88;1.70;;;21.10;63.90;;;;;;4970525;28;95177;-85
2022/11/16 00:21:28;;;;;;;2.42;1.60;;;21.10;63.90;;;;;;4971642;28;94109;-85
2022/11/16 00:23:54;;;;;;;3.78;1.60;;;21.10;63.80;;;;;;4969159;28;92084;-85
2022/11/16 00:26:20;;;;;;;3.08;1.60;;;21.00;64.00;;;;;;4971219;28;93106;-85
2022/11/16 00:28:51;;;;;;;4.30;1.95;;;21.10;64.00;;;;;;4963411;28;95200;-85
2022/11/16 00:31:17;;;;;;;2.88;1.70;;;21.00;63.90;;;;;;4964159;28;93172;-85
2022/11/16 00:33:43;;;;;;;2.35;1.75;;;21.00;63.90;;;;;;4971464;28;92176;-85
2022/11/16 00:36:11;;;;;;;2.70;1.73;;;21.00;63.90;;;;;;4956046;28;91797;-85
2022/11/16 00:38:36;;;;;;;3.00;2.00;;;21.00;63.90;;;;;;4970338;28;100469;-85
2022/11/16 00:41:02;;;;;;;4.53;1.80;;;21.00;64.20;;;;;;4972819;28;93132;-85
2022/11/16 00:43:28;;;;;;;4.28;2.22;;;21.00;64.10;;;;;;4973533;28;93255;-85
2022/11/16 00:45:53;;;;;;;2.80;1.80;;;21.00;64.10;;;;;;4973796;28;92400;-85
2022/11/16 00:48:19;;;;;;;3.10;1.80;;;21.00;64.00;;;;;;4973687;28;93311;-85
2022/11/16 00:50:45;;;;;;;2.95;1.73;;;21.00;63.90;;;;;;4973426;28;93100;-85
2022/11/16 00:53:13;;;;;;;2.75;1.98;;;20.90;63.80;;;;;;4973775;28;91880;-86
2022/11/16 00:55:39;;;;;;;2.40;1.50;;;21.00;63.80;;;;;;4973899;28;92118;-86
2022/11/16 00:58:04;;;;;;;2.97;1.67;;;21.00;64.00;;;;;;4973663;28;94207;-85
2022/11/16 01:00:30;;;;;;;2.03;1.58;;;20.90;63.80;;;;;;4973936;28;93335;-86
2022/11/16 01:02:56;;;;;;;3.58;1.90;;;20.90;63.90;;;;;;4973727;28;92214;-85
2022/11/16 01:05:22;;;;;;;2.58;1.67;;;20.90;64.10;;;;;;4971290;28;92101;-86
2022/11/16 01:07:48;;;;;;;2.92;1.73;;;20.90;63.90;;;;;;4972862;28;94867;-85
2022/11/16 01:10:25;;;;;;;3.00;2.13;;;20.90;63.90;;;;;;4973012;28;95787;-86
2022/11/16 01:12:51;;;;;;;3.03;1.75;;;20.90;63.90;;;;;;4966947;28;91896;-85
2022/11/16 01:15:19;;;;;;;2.53;1.70;;;20.90;63.90;;;;;;5002063;28;91936;-85
2022/11/16 01:17:45;;;;;;;2.78;1.83;;;20.90;64.00;;;;;;4973062;28;93896;-86
2022/11/16 01:20:16;;;;;;;3.20;1.70;;;20.90;64.00;;;;;;4986378;28;93391;-85
2022/11/16 01:22:43;;;;;;;2.55;1.70;;;20.80;63.90;;;;;;4978762;28;92172;-86
2022/11/16 01:25:09;;;;;;;2.20;1.73;;;20.80;64.00;;;;;;4973233;28;91540;-85
2022/11/16 01:27:35;;;;;;;2.42;1.55;;;20.80;64.00;;;;;;4973843;28;92411;-85
2022/11/16 01:30:01;;;;;;;2.10;1.60;;;20.90;64.00;;;;;;4972952;28;92906;-85
2022/11/16 01:32:27;;;;;;;2.60;1.75;;;20.90;64.90;;;;;;4972801;28;95537;-85
2022/11/16 01:34:52;;;;;;;3.40;1.85;;;20.80;64.20;;;;;;4973317;28;92738;-85
2022/11/16 01:37:18;;;;;;;3.22;1.70;;;20.80;64.10;;;;;;4971261;28;93444;-85
2022/11/16 01:39:44;;;;;;;2.35;1.40;;;20.80;64.10;;;;;;4972148;28;93298;-85
2022/11/16 01:42:42;;;;;;;3.63;2.13;;;20.80;63.90;;;;;;4973819;28;92235;-85
2022/11/16 01:45:21;;;;;;;3.08;2.05;;;20.80;64.20;;;;;;4970299;28;92645;-85
2022/11/16 01:47:47;;;;;;;3.00;1.92;;;20.80;64.20;;;;;;4969538;28;93531;-85
2022/11/16 01:50:16;;;;;;;2.63;1.45;;;20.80;64.10;;;;;;4969823;28;93444;-85
2022/11/16 01:52:53;;;;;;;3.30;1.90;;;20.80;64.20;;;;;;4970182;28;92336;-85
2022/11/16 01:55:23;;;;;;;3.05;1.98;;;20.80;64.10;;;;;;4969481;28;92777;-85
2022/11/16 01:57:53;;;;;;;3.17;1.67;;;20.80;64.10;;;;;;4969160;28;94543;-85
2022/11/16 02:00:19;;;;;;;3.55;1.88;;;20.80;64.00;;;;;;4969919;28;93834;-85
2022/11/16 02:02:45;;;;;;;4.85;1.75;;;20.70;64.10;;;;;;4970151;28;92223;-86
2022/11/16 02:05:15;;;;;;;3.22;1.65;;;20.70;64.10;;;;;;4969993;28;92587;-85
2022/11/16 02:11:05;;;;;;;2.60;1.70;;;20.70;64.10;;;;;;4969479;28;92100;-85
2022/11/16 02:14:12;;;;;;;2.05;1.58;;;20.80;64.00;;;;;;4969756;28;92490;-85
2022/11/16 02:16:42;;;;;;;3.70;1.90;;;20.70;63.90;;;;;;5004735;28;91830;-85
2022/11/16 02:19:35;;;;;;;1.77;1.38;;;20.70;63.90;;;;;;4972564;28;93733;-85
2022/11/16 02:22:24;;;;;;;2.00;1.40;;;20.70;64.00;;;;;;4972255;28;92365;-85
2022/11/16 02:25:04;;;;;;;2.83;1.80;;;20.70;64.00;;;;;;4969047;28;93177;-86
2022/11/16 02:27:38;;;;;;;2.50;1.67;;;20.70;64.00;;;;;;4970345;28;93014;-85
2022/11/16 02:30:05;;;;;;;2.70;1.85;;;20.70;63.80;;;;;;4969049;28;97118;-85
2022/11/16 02:32:41;;;;;;;3.15;1.55;;;20.70;64.00;;;;;;4969284;28;92840;-86
2022/11/16 02:35:14;;;;;;;1.63;1.50;;;20.70;64.10;;;;;;4969238;28;92168;-85
2022/11/16 02:37:49;;;;;;;2.10;1.45;;;20.70;64.10;;;;;;4968668;28;92874;-86
2022/11/16 02:40:19;;;;;;;2.17;1.60;;;20.70;64.20;;;;;;4968820;28;93754;-85
2022/11/16 02:42:50;;;;;;;2.13;1.75;;;20.70;64.00;;;;;;4952317;28;94413;-85
2022/11/16 02:45:26;;;;;;;1.92;1.70;;;20.70;64.10;;;;;;4970613;28;92723;-85
2022/11/16 02:47:57;;;;;;;2.47;1.70;;;20.70;64.00;;;;;;4969365;28;92219;-85
2022/11/16 02:50:24;;;;;;;3.28;1.50;;;20.70;64.00;;;;;;4968961;28;94653;-85
2022/11/16 02:52:50;;;;;;;2.53;1.75;;;20.60;64.00;;;;;;4969586;28;93442;-85
2022/11/16 02:55:15;;;;;;;2.35;1.58;;;20.60;64.20;;;;;;4969280;28;92657;-85
2022/11/16 02:58:02;;;;;;;3.17;2.00;;;20.60;64.30;;;;;;4969484;28;92453;-85
2022/11/16 03:00:42;;;;;;;1.70;1.55;;;20.60;64.30;;;;;;4952952;28;95251;-85
2022/11/16 03:03:35;;;;;;;2.72;1.30;;;20.60;64.30;;;;;;4971632;28;98153;-85
2022/11/16 03:06:11;;;;;;;2.60;1.67;;;20.60;64.30;;;;;;5003678;28;92310;-85
2022/11/16 03:08:41;;;;;;;1.65;1.55;;;20.60;64.20;;;;;;4971122;28;91294;-85
2022/11/16 03:14:04;;;;;;;2.05;1.50;;;20.60;64.10;;;;;;4984674;28;92144;-85
2022/11/16 03:16:37;;;;;;;4.05;1.63;;;20.60;65.10;;;;;;4983272;28;93124;-85
2022/11/16 03:19:07;;;;;;;3.08;1.55;;;20.60;64.20;;;;;;4975269;28;92171;-85
2022/11/16 03:21:45;;;;;;;1.52;1.30;;;20.60;64.50;;;;;;4975553;28;94003;-85
2022/11/16 03:24:11;;;;;;;2.78;1.77;;;20.60;64.30;;;;;;4975159;28;97503;-85
2022/11/16 03:26:52;;;;;;;2.63;1.80;;;20.60;64.30;;;;;;4973547;28;92730;-86
2022/11/16 03:29:53;;;;;;;3.88;1.50;;;20.60;64.30;;;;;;4974757;28;92658;-85
2022/11/16 03:32:32;;;;;;;2.53;1.50;;;20.50;64.20;;;;;;4971940;28;93727;-85
2022/11/16 03:35:12;;;;;;;2.70;1.75;;;20.50;64.20;;;;;;4972525;28;92532;-86
2022/11/16 03:37:46;;;;;;;2.83;1.55;;;20.50;64.20;;;;;;4971710;28;92177;-86
2022/11/16 03:40:12;;;;;;;2.08;1.65;;;20.60;64.20;;;;;;4971433;28;92145;-85
2022/11/16 03:42:41;;;;;;;1.52;1.27;;;20.50;64.30;;;;;;4971400;28;94598;-85
2022/11/16 03:45:07;;;;;;;3.00;1.95;;;20.50;64.30;;;;;;4972667;28;94229;-85
2022/11/16 03:47:32;;;;;;;2.38;1.50;;;20.50;64.20;;;;;;4971983;28;93107;-85
2022/11/16 03:49:58;;;;;;;2.90;2.03;;;20.50;64.30;;;;;;4972243;28;92286;-85
2022/11/16 03:52:24;;;;;;;2.35;1.40;;;20.50;64.20;;;;;;4971676;28;95274;-86
2022/11/16 03:54:49;;;;;;;2.20;1.58;;;20.50;64.20;;;;;;4971798;28;93299;-85
2022/11/16 03:57:17;;;;;;;3.38;1.90;;;20.50;64.20;;;;;;4972937;28;92596;-85
2022/11/16 03:59:43;;;;;;;2.30;1.38;;;20.50;64.30;;;;;;4972143;28;91947;-85
2022/11/16 04:02:09;;;;;;;2.25;1.50;;;20.50;64.30;;;;;;4971483;28;93747;-85
2022/11/16 04:29:17;;;;;;;2.03;1.20;;;20.40;64.40;;;;;;4954579;28;92418;-86
2022/11/16 04:39:58;;;;;;;2.25;1.50;;;20.40;64.40;;;;;;4973515;28;92247;-85
2022/11/16 04:42:24;;;;;;;1.65;1.30;;;20.40;64.50;;;;;;4974036;28;92138;-85
2022/11/16 04:47:35;;;;;;;1.92;1.52;;;20.40;64.40;;;;;;4972853;28;92573;-85
2022/11/16 04:50:03;;;;;;;2.38;1.50;;;20.40;65.00;;;;;;4973393;28;92519;-85
2022/11/16 04:52:28;;;;;;;1.90;1.50;;;20.40;64.20;;;;;;4973531;28;91899;-85
2022/11/16 04:54:54;;;;;;;1.63;1.27;;;20.40;64.30;;;;;;4973205;28;93779;-85
2022/11/16 04:57:20;;;;;;;2.17;1.40;;;20.40;64.20;;;;;;4974169;28;92520;-85
2022/11/16 04:59:45;;;;;;;1.25;1.15;;;20.40;64.30;;;;;;4972496;28;93519;-84
2022/11/16 05:02:11;;;;;;;2.25;1.50;;;20.40;64.30;;;;;;4973014;28;92737;-85
2022/11/16 05:04:40;;;;;;;1.77;1.25;;;20.30;64.30;;;;;;4973281;28;93032;-85
2022/11/16 05:07:10;;;;;;;2.22;1.50;;;20.40;64.00;;;;;;4972490;28;92499;-85
2022/11/16 05:09:46;;;;;;;2.00;1.40;;;20.40;64.10;;;;;;5005058;28;92509;-85
2022/11/16 05:12:18;;;;;;;1.75;1.40;;;20.40;64.00;;;;;;4973510;28;92359;-85
2022/11/16 05:14:44;;;;;;;3.05;1.50;;;20.30;64.10;;;;;;4973138;28;93685;-85
2022/11/16 05:17:11;;;;;;;1.70;1.25;;;20.30;65.00;;;;;;4973493;28;93667;-85
2022/11/16 05:22:21;;;;;;;1.33;1.17;;;20.30;64.20;;;;;;4972585;28;92563;-85
2022/11/16 05:24:47;;;;;;;1.65;1.45;;;20.30;64.20;;;;;;4972914;28;94064;-85
2022/11/16 05:27:15;;;;;;;2.28;1.55;;;20.30;64.20;;;;;;4972981;28;92984;-85
2022/11/16 05:29:41;;;;;;;2.03;1.20;;;20.30;64.40;;;;;;4973414;28;92260;-85
2022/11/16 05:32:08;;;;;;;2.55;1.65;;;20.30;64.20;;;;;;4973260;28;92237;-85
2022/11/16 05:34:34;;;;;;;1.92;1.25;;;20.30;64.10;;;;;;4972502;28;93648;-85
2022/11/16 05:36:59;;;;;;;1.58;1.40;;;20.30;64.30;;;;;;4971736;28;93738;-85
2022/11/16 05:39:25;;;;;;;2.17;1.70;;;20.30;65.00;;;;;;4973649;28;92595;-85
2022/11/16 05:41:51;;;;;;;3.08;1.42;;;20.30;64.90;;;;;;4973269;28;91476;-85
2022/11/16 05:44:17;;;;;;;1.30;1.17;;;20.30;64.90;;;;;;4973266;28;93237;-85
2022/11/16 05:46:43;;;;;;;1.40;1.20;;;20.30;64.70;;;;;;4972757;28;93414;-85
2022/11/16 05:49:10;;;;;;;2.13;1.50;;;20.30;64.80;;;;;;4972590;28;93030;-85
2022/11/16 05:51:38;;;;;;;2.65;1.50;;;20.20;64.70;;;;;;4974061;28;92217;-85
2022/11/16 05:54:04;;;;;;;1.63;1.20;;;20.20;64.80;;;;;;4973018;28;98452;-85
2022/11/16 05:56:33;;;;;;;3.22;1.52;;;20.20;65.00;;;;;;4972750;28;92968;-85
2022/11/16 05:58:59;;;;;;;2.35;1.40;;;20.20;64.80;;;;;;4973085;28;92925;-85
2022/11/16 06:01:25;;;;;;;1.50;1.05;;;20.20;64.70;;;;;;4971992;28;93324;-85
2022/11/16 06:03:52;;;;;;;1.65;1.20;;;20.20;64.70;;;;;;4964631;28;93547;-85
2022/11/16 06:06:18;;;;;;;1.92;1.50;;;20.20;64.90;;;;;;5019541;28;96224;-85
2022/11/16 06:08:44;;;;;;;2.17;1.48;;;20.20;64.60;;;;;;4972442;28;91859;-85
2022/11/16 06:11:12;;;;;;;2.40;1.20;;;20.20;64.60;;;;;;4972441;28;92539;-88
2022/11/16 06:13:38;;;;;;;3.55;1.33;;;20.30;64.40;;;;;;4971786;28;95998;-85
2022/11/16 06:16:04;;;;;;;3.45;1.40;;;20.30;63.60;;;;;;4972653;28;94204;-86
2022/11/16 06:18:31;;;;;;;2.08;1.40;;;20.30;64.00;;;;;;4972788;28;92341;-86
2022/11/16 06:20:56;;;;;;;2.80;1.30;;;20.30;64.50;;;;;;4972631;28;92405;-85
2022/11/16 06:23:22;;;;;;;1.52;1.20;;;20.40;64.10;;;;;;4972865;28;93476;-85
2022/11/16 06:25:55;;;;;;;2.80;1.30;;;20.50;64.20;;;;;;4972327;28;93197;-85
2022/11/16 06:28:21;;;;;;;3.03;1.20;;;20.50;64.30;;;;;;5004441;28;92444;-85
2022/11/16 06:30:47;;;;;;;3.47;1.23;;;20.60;64.40;;;;;;5005703;28;92073;-86
2022/11/16 06:33:13;;;;;;;2.25;1.30;;;20.70;64.20;;;;;;5003485;28;96207;-86
2022/11/16 06:35:49;;;;;;;1.95;1.30;;;20.70;64.10;;;;;;4972628;28;93180;-85
2022/11/16 06:38:18;;;;;;;2.50;1.30;;;20.80;64.10;;;;;;4971673;28;94170;-85
2022/11/16 06:40:56;;;;;;;1.33;1.20;;;20.80;63.80;;;;;;4972313;28;92354;-86
2022/11/16 06:43:23;;;;;;;1.73;1.23;;;20.90;63.80;;;;;;4971716;28;93614;-85
2022/11/16 06:45:54;;;;;;;1.45;1.15;;;20.90;63.80;;;;;;4972918;28;92570;-85
2022/11/16 06:48:21;;;;;;;1.17;0.95;;;20.90;63.70;;;;;;4976432;28;92016;-88
2022/11/16 06:50:48;;;;;;;1.30;1.17;;;20.80;63.60;;;;;;4974536;28;92117;-85
2022/11/16 06:53:14;;;;;;;2.05;1.02;;;20.90;63.80;;;;;;4975211;28;93302;-85
2022/11/16 06:55:39;;;;;;;1.23;1.00;;;20.80;63.90;;;;;;4975024;28;92861;-85
2022/11/16 06:58:05;;;;;;;1.55;1.15;;;20.70;64.00;;;;;;4975449;28;92383;-85
2022/11/16 07:00:31;;;;;;;1.60;1.15;;;20.80;63.60;;;;;;4975374;28;92435;-86
2022/11/16 07:02:56;;;;;;;2.47;1.60;;;20.80;63.60;;;;;;4996307;28;94491;-86
2022/11/16 07:05:22;;;;;;;4.70;1.25;;;20.70;63.80;;;;;;4974758;28;93734;-85
2022/11/16 07:07:55;;;;;;;4.95;1.45;;;20.80;63.90;;;;;;5018432;27;92732;-86
2022/11/16 07:10:21;;;;;;;2.25;1.30;;;20.90;63.50;;;;;;4986107;28;92669;-86
2022/11/16 07:12:47;;;;;;;2.83;1.50;;;20.90;63.50;;;;;;4974653;28;92774;-86
2022/11/16 07:15:12;;;;;;;9.27;2.88;;;21.00;63.30;;;;;;4975174;28;93329;-87
2022/11/16 07:17:38;;;;;;;9.75;3.28;;;21.10;63.50;;;;;;4975497;28;92471;-87
2022/11/16 07:20:04;;;;;;;14.02;3.65;;;21.20;63.30;;;;;;4974228;28;91991;-87
2022/11/16 07:22:31;;;;;;;18.52;5.40;;;21.20;63.10;;;;;;4974165;28;93311;-87
2022/11/16 07:24:57;;;;;;;29.83;7.40;;;21.20;63.00;;;;;;4975460;28;93075;-87
2022/11/16 07:27:22;;;;;;;30.77;5.93;;;21.20;62.20;;;;;;4976500;28;93461;-87
2022/11/16 07:29:48;;;;;;;16.98;4.90;;;21.20;62.10;;;;;;4976850;28;91934;-88
2022/11/16 07:32:14;;;;;;;18.58;4.53;;;21.20;62.60;;;;;;4974948;28;93852;-88
2022/11/16 07:34:39;;;;;;;23.13;5.43;;;21.30;62.80;;;;;;4973558;28;92400;-88
2022/11/16 07:37:05;;;;;;;21.80;5.90;;;21.40;62.70;;;;;;4974286;28;92272;-87
2022/11/16 07:39:30;;;;;;;45.38;10.63;;;21.40;62.90;;;;;;4974513;28;92232;-86
2022/11/16 07:41:56;;;;;;;31.98;8.85;;;21.30;60.90;;;;;;4973888;28;93355;-85
2022/11/16 07:44:21;;;;;;;27.23;6.72;;;21.30;61.80;;;;;;4974730;28;93140;-86
2022/11/16 07:46:47;;;;;;;24.20;6.85;;;21.30;62.30;;;;;;4974774;28;92407;-86
2022/11/16 07:49:17;;;;;;;26.55;6.97;;;21.30;62.00;;;;;;4974930;28;92559;-86
2022/11/16 07:51:44;;;;;;;36.88;9.13;;;21.30;62.50;;;;;;4942247;28;103328;-87
2022/11/16 07:54:11;;;;;;;27.65;8.50;;;21.30;61.60;;;;;;4988849;28;97399;-87
2022/11/16 07:56:37;;;;;;;30.35;7.38;;;21.30;62.20;;;;;;4974570;28;93110;-87
2022/11/16 07:59:04;;;;;;;33.60;8.05;;;21.30;62.70;;;;;;4985927;28;93324;-87
2022/11/16 08:01:31;;;;;;;36.58;9.55;;;21.30;62.30;;;;;;4983680;28;93559;-85
2022/11/16 08:03:58;;;;;;;29.90;8.90;;;21.40;60.80;;;;;;5006318;28;96407;-86
2022/11/16 08:06:26;;;;;;;25.80;7.30;;;21.40;61.10;;;;;;4975774;28;92453;-87
2022/11/16 08:08:52;;;;;;;24.77;7.80;;;21.60;61.60;;;;;;4974289;28;91734;-87
2022/11/16 08:11:17;;;;;;;34.50;7.78;;;21.60;61.60;;;;;;4974402;28;93298;-87
2022/11/16 08:13:44;;;;;;;28.73;7.93;;;21.70;61.70;;;;;;5005985;28;96553;-87
2022/11/16 08:16:15;;;;;;;30.65;8.30;;;21.60;61.90;;;;;;4974187;28;93531;-87
2022/11/16 08:18:42;;;;;;;29.63;7.72;;;21.60;61.90;;;;;;4973451;28;91944;-87
2022/11/16 08:21:10;;;;;;;28.52;7.25;;;21.70;62.00;;;;;;4974553;28;93315;-87
2022/11/16 08:23:36;;;;;;;28.00;7.05;;;21.70;62.00;;;;;;4973568;28;93397;-86
2022/11/16 08:26:04;;;;;;;26.70;6.78;;;21.70;61.90;;;;;;4971931;28;92223;-87
2022/11/16 08:28:38;;;;;;;27.95;7.05;;;21.80;60.80;;;;;;4972246;28;92492;-86
2022/11/16 08:31:11;;;;;;;26.17;6.60;;;21.80;60.00;;;;;;4973166;28;96332;-88
2022/11/16 08:33:37;;;;;;;23.25;6.43;;;21.80;59.70;;;;;;4991317;28;93234;-86
2022/11/16 08:36:08;;;;;;;24.67;6.85;;;21.80;60.00;;;;;;4992080;28;92085;-86
2022/11/16 08:38:34;;;;;;;26.05;6.93;;;21.90;60.20;;;;;;4990774;28;93097;-85
2022/11/16 08:40:59;;;;;;;22.73;6.15;;;22.00;60.20;;;;;;4990593;28;94485;-86
2022/11/16 08:43:26;;;;;;;28.60;6.28;;;22.00;60.40;;;;;;4990702;28;94432;-83
2022/11/16 08:45:55;;;;;;;29.60;6.25;;;22.10;59.70;;;;;;4990227;28;92427;-87
2022/11/16 08:48:21;;;;;;;20.90;5.80;;;22.10;59.50;;;;;;4991869;28;92543;-87
2022/11/16 08:50:46;;;;;;;22.90;6.53;;;22.10;60.30;;;;;;4989706;28;93286;-87
2022/11/16 08:53:14;;;;;;;28.15;7.18;;;22.10;60.20;;;;;;4973209;28;96216;-88
2022/11/16 08:55:41;;;;;;;23.30;5.82;;;22.20;60.50;;;;;;4982566;28;92132;-88
2022/11/16 08:58:06;;;;;;;24.25;6.10;;;22.20;59.90;;;;;;4973358;28;91590;-89
2022/11/16 09:00:32;;;;;;;27.95;6.32;;;22.30;59.90;;;;;;4974176;28;93254;-88
2022/11/16 09:03:00;;;;;;;22.25;6.45;;;22.20;60.20;;;;;;4972626;28;93030;-88
2022/11/16 09:05:26;;;;;;;24.40;6.40;;;22.30;60.20;;;;;;4973056;28;93016;-87
2022/11/16 09:07:51;;;;;;;24.70;6.47;;;22.40;60.40;;;;;;4972537;28;92440;-88
2022/11/16 09:10:21;;;;;;;26.38;6.50;;;22.30;59.80;;;;;;4971422;28;96921;-88
2022/11/16 09:12:48;;;;;;;21.92;6.38;;;22.30;60.10;;;;;;4971094;28;100296;-89
2022/11/16 09:15:15;;;;;;;25.00;6.93;;;22.30;60.20;;;;;;4974267;28;92197;-88
2022/11/16 09:17:41;;;;;;;26.17;7.70;;;22.20;60.10;;;;;;4973247;28;92281;-88
2022/11/16 09:20:07;;;;;;;31.60;7.88;;;22.20;59.90;;;;;;4972305;28;93359;-86
2022/11/16 09:22:33;;;;;;;26.95;7.72;;;22.10;60.00;;;;;;4972803;28;93136;-86
2022/11/16 09:24:59;;;;;;;27.17;7.28;;;22.20;60.20;;;;;;5004563;28;92321;-87
2022/11/16 09:27:25;;;;;;;25.98;7.20;;;22.10;60.40;;;;;;4973999;28;92908;-87
2022/11/16 09:29:50;;;;;;;36.05;7.85;;;22.10;59.90;;;;;;4972101;28;95083;-86
2022/11/16 09:32:16;;;;;;;29.02;7.90;;;22.10;60.20;;;;;;4972152;28;94269;-87
2022/11/16 09:34:41;;;;;;;34.42;7.63;;;22.00;60.10;;;;;;5005136;28;92631;-88
2022/11/16 09:37:07;;;;;;;24.58;7.32;;;22.00;60.20;;;;;;4972668;28;92654;-87
2022/11/16 09:39:33;;;;;;;24.92;6.80;;;22.00;58.90;;;;;;5005242;28;94526;-87
2022/11/16 09:42:31;;;;;;;21.13;6.07;;;22.10;58.40;;;;;;4972795;28;93130;-87
2022/11/16 09:45:11;;;;;;;31.35;10.80;;;22.00;57.40;;;;;;4969899;28;92916;-86
2022/11/16 09:47:53;;;;;;;23.88;8.73;;;22.10;56.90;;;;;;4970182;28;92319;-87
2022/11/16 09:50:29;;;;;;;25.38;8.02;;;22.20;57.00;;;;;;4970500;28;93281;-86
2022/11/16 09:53:00;;;;;;;20.65;7.18;;;22.10;57.30;;;;;;4944310;28;96260;-86
2022/11/16 09:55:41;;;;;;;24.13;7.03;;;22.10;57.20;;;;;;4954988;28;93520;-88
2022/11/16 09:58:25;;;;;;;20.00;7.25;;;22.00;57.40;;;;;;4970396;28;92434;-87
2022/11/16 10:00:58;;;;;;;18.10;5.57;;;21.90;57.00;;;;;;4969618;28;92651;-88
2022/11/16 10:03:25;;;;;;;16.98;5.50;;;22.10;57.10;;;;;;4971254;28;93695;-88
2022/11/16 10:06:02;;;;;;;17.80;5.60;;;22.20;57.00;;;;;;4970643;28;92777;-89
2022/11/16 10:08:46;;;;;;;13.90;5.25;;;22.20;57.10;;;;;;4970183;28;92449;-89
2022/11/16 10:11:42;;;;;;;13.57;5.05;;;22.20;56.50;;;;;;4970273;28;93644;-88
2022/11/16 10:14:34;;;;;;;21.08;6.20;;;22.20;57.30;;;;;;4969967;28;93113;-88
2022/11/16 10:17:32;;;;;;;25.15;6.95;;;22.10;57.00;;;;;;4953213;28;92312;-88
2022/11/16 10:20:36;;;;;;;24.73;6.85;;;22.10;56.80;;;;;;4979442;28;92194;-87
2022/11/16 10:23:25;;;;;;;22.67;5.90;;;22.10;56.80;;;;;;4932901;28;95082;-87
2022/11/16 10:25:56;;;;;;;24.13;5.97;;;22.10;56.70;;;;;;4934086;28;93786;-88
2022/11/16 10:28:50;;;;;;;18.58;5.95;;;22.10;56.90;;;;;;4950135;28;92705;-86
2022/11/16 10:31:27;;;;;;;18.67;5.60;;;22.10;57.20;;;;;;4933521;28;92158;-88
2022/11/16 10:33:57;;;;;;;18.40;5.43;;;22.10;56.50;;;;;;4937541;28;93453;-88
2022/11/16 10:36:26;;;;;;;14.50;4.90;;;22.10;56.70;;;;;;4935775;28;93661;-88
2022/11/16 10:38:55;;;;;;;20.75;6.05;;;22.10;57.00;;;;;;4932120;28;92383;-88
2022/11/16 10:41:21;;;;;;;;;;;22.20;57.60;;;;;;4915722;28;91570;-87
2022/11/16 10:43:47;;;;;;;24.30;6.03;;;22.40;57.80;;;;;;4914992;28;92907;-87
2022/11/16 10:46:20;;;;;;;19.15;5.65;;;22.60;57.30;;;;;;4915328;28;93735;-88
2022/11/16 10:49:10;;;;;;;17.20;5.43;;;22.70;57.30;;;;;;4907577;28;94190;-88
2022/11/16 10:51:36;;;;;;;17.90;5.50;;;22.70;57.40;;;;;;4931387;28;93363;-87
2022/11/16 10:54:10;;;;;;;15.07;5.22;;;22.80;57.20;;;;;;4914580;28;93211;-87
2022/11/16 10:56:38;;;;;;;15.20;5.25;;;22.90;56.30;;;;;;4905592;28;94832;-87
2022/11/16 10:59:05;;;;;;;15.63;4.10;;;22.90;57.30;;;;;;4920604;28;92041;-85
2022/11/16 11:01:36;;;;;;;12.57;3.63;;;22.90;55.40;;;;;;4956090;28;92225;-85
2022/11/16 11:04:24;;;;;;;17.60;3.95;;;22.80;53.30;;;;;;4954003;28;93129;-87
2022/11/16 11:07:20;;;;;;;14.17;3.87;;;22.80;53.70;;;;;;4954323;28;95429;-86
2022/11/16 11:09:51;;;;;;;13.60;4.22;;;22.80;54.30;;;;;;4955388;28;92178;-86
2022/11/16 11:12:39;;;;;;;16.90;4.93;;;22.90;56.50;;;;;;4970973;28;92150;-87
2022/11/16 11:15:22;;;;;;;18.73;4.38;;;22.90;56.10;;;;;;4955069;28;99138;-85
2022/11/16 11:17:49;;;;;;;16.15;4.28;;;22.90;56.10;;;;;;4955016;28;94287;-85
2022/11/16 11:20:15;;;;;;;13.45;3.70;;;23.00;56.40;;;;;;4955521;28;92615;-84
2022/11/16 11:22:59;;;;;;;13.55;4.15;;;23.00;56.70;;;;;;4955281;28;91981;-85
2022/11/16 11:25:36;;;;;;;11.40;3.88;;;22.90;57.10;;;;;;4954499;28;94093;-87
2022/11/16 11:28:26;;;;;;;15.95;4.32;;;22.90;57.30;;;;;;4954337;28;92984;-86
2022/11/16 11:31:15;;;;;;;10.05;3.65;;;23.00;57.30;;;;;;4954759;27;92725;-85
2022/11/16 11:33:46;;;;;;;;;;;23.00;56.30;;;;;;4955802;28;91872;-85
2022/11/16 11:36:26;;;;;;;14.68;3.83;;;22.80;56.50;;;;;;4958289;28;92408;-86
2022/11/16 11:39:23;;;;;;;13.60;3.38;;;22.80;57.20;;;;;;4974137;28;92690;-85
2022/11/16 11:42:04;;;;;;;11.43;3.38;;;22.80;57.50;;;;;;4974418;28;92939;-85
2022/11/16 11:44:40;;;;;;;8.65;3.20;;;22.80;57.30;;;;;;4974455;28;92007;-86
2022/11/16 11:47:29;;;;;;;19.00;4.22;;;22.80;57.70;;;;;;4974368;28;93735;-85
2022/11/16 11:50:05;;;;;;;;;;;22.90;57.60;;;;;;4974467;28;93375;-85
2022/11/16 11:52:58;;;;;;;14.60;4.30;;;22.80;57.70;;;;;;4976141;28;92440;-86
2022/11/16 11:55:24;;;;;;;11.07;3.75;;;22.90;58.10;;;;;;4971400;28;93791;-85
2022/11/16 11:57:52;;;;;;;16.00;3.97;;;22.90;57.80;;;;;;4971929;28;94007;-86
2022/11/16 12:00:19;;;;;;;10.05;3.17;;;22.80;57.40;;;;;;4972330;28;94048;-86
2022/11/16 12:02:54;;;;;;;12.70;3.58;;;22.80;57.00;;;;;;4971515;28;92653;-85
2022/11/16 12:05:22;;;;;;;15.05;4.00;;;22.80;57.40;;;;;;4971966;28;93032;-85
2022/11/16 12:07:53;;;;;;;13.33;3.40;;;22.70;57.60;;;;;;4971142;28;94826;-85
2022/11/16 12:10:58;;;;;;;9.93;3.88;;;22.80;57.90;;;;;;4971405;28;94413;-85
2022/11/16 12:13:48;;;;;;;8.63;2.97;;;22.70;57.70;;;;;;4952108;28;92410;-85
2022/11/16 12:16:22;;;;;;;15.38;2.83;;;22.70;57.70;;;;;;4952149;28;92187;-85
2022/11/16 12:18:56;;;;;;;10.57;3.00;;;22.80;56.30;;;;;;4951751;28;92391;-85
2022/11/16 12:22:06;;;;;;;12.07;3.63;;;22.70;57.20;;;;;;4952188;28;93123;-86
2022/11/16 12:25:01;;;;;;;11.68;3.38;;;22.80;57.40;;;;;;4904832;28;92303;-86
2022/11/16 12:27:55;;;;;;;12.05;3.20;;;22.80;57.60;;;;;;4903728;28;91658;-85
2022/11/16 12:30:23;;;;;;;15.43;3.65;;;22.90;57.50;;;;;;4886358;28;99545;-88
2022/11/16 12:33:03;;;;;;;10.63;2.80;;;22.80;57.60;;;;;;4881619;28;93666;-85
2022/11/16 12:35:47;;;;;;;13.80;2.85;;;22.80;56.70;;;;;;4865038;28;93477;-84
2022/11/16 12:38:29;;;;;;;11.20;3.08;;;22.80;57.60;;;;;;4864740;28;92553;-84
2022/11/16 12:41:06;;;;;;;21.08;4.00;;;22.70;57.70;;;;;;4873343;28;96645;-85
2022/11/16 12:43:43;;;;;;;7.50;2.45;;;22.70;58.30;;;;;;4881126;28;95341;-84
2022/11/16 12:46:57;;;;;;;11.55;3.20;;;22.80;58.40;;;;;;4885417;28;92822;-86
2022/11/16 12:49:40;;;;;;;6.53;2.38;;;22.70;58.30;;;;;;4792328;29;92126;-86
2022/11/16 12:52:14;;;;;;;8.63;3.00;;;22.70;57.80;;;;;;4799315;29;93085;-88
2022/11/16 12:57:39;;;;;;;8.55;2.75;;;22.80;58.80;;;;;;4797771;28;92440;-84
2022/11/16 13:00:17;;;;;;;10.60;3.53;;;22.80;58.10;;;;;;4844854;29;92819;-84
2022/11/16 13:03:01;;;;;;;9.27;3.37;;;22.80;58.60;;;;;;4844142;29;95162;-85
2022/11/16 13:05:39;;;;;;;12.20;2.97;;;22.70;58.50;;;;;;4859206;28;97084;-83
2022/11/16 13:08:25;;;;;;;14.32;3.20;;;22.70;59.00;;;;;;4873859;28;92465;-84
2022/11/16 13:10:56;;;;;;;13.75;3.10;;;22.80;59.00;;;;;;4895265;28;92693;-84
2022/11/16 13:13:28;;;;;;;10.75;2.85;;;22.80;59.10;;;;;;4878262;28;94555;-83
2022/11/16 13:15:59;;;;;;;11.65;2.90;;;22.70;59.30;;;;;;4879467;28;93136;-84
2022/11/16 13:18:27;;;;;;;11.05;3.20;;;22.60;59.10;;;;;;4879246;28;92720;-83
2022/11/16 13:21:18;;;;;;;11.90;2.55;;;22.50;59.00;;;;;;4879139;28;92263;-84
2022/11/16 13:23:59;;;;;;;9.77;3.05;;;22.60;58.90;;;;;;4941679;28;95100;-83
2022/11/16 13:26:39;;;;;;;14.50;2.95;;;22.60;58.70;;;;;;4968907;28;93271;-83
2022/11/16 13:29:43;;;;;;;8.23;2.67;;;22.70;58.90;;;;;;4965839;28;93277;-84
2022/11/16 13:32:22;;;;;;;8.40;2.65;;;22.60;57.60;;;;;;4966032;28;92519;-84
2022/11/16 13:34:48;;;;;;;14.93;2.70;;;22.60;57.30;;;;;;4967692;28;93014;-84
2022/11/16 13:37:33;;;;;;;8.32;2.58;;;22.60;57.20;;;;;;4965206;28;92566;-83
2022/11/16 13:39:58;;;;;;;8.68;2.55;;;22.70;57.20;;;;;;4955020;28;92818;-83
2022/11/16 13:42:29;;;;;;;9.40;2.60;;;22.60;57.70;;;;;;4965836;28;92905;-83
2022/11/16 13:45:05;;;;;;;9.13;2.85;;;22.50;58.10;;;;;;4966404;28;93562;-83
2022/11/16 13:47:32;;;;;;;11.50;2.65;;;22.40;58.30;;;;;;4955514;28;93267;-82
2022/11/16 13:50:03;;;;;;;7.82;2.40;;;22.50;58.60;;;;;;4964273;28;92708;-83
2022/11/16 13:52:49;;;;;;;6.35;2.20;;;22.40;58.50;;;;;;4965063;28;92074;-83
2022/11/16 13:55:32;;;;;;;9.68;2.47;;;22.50;59.00;;;;;;4963668;28;93754;-83
2022/11/16 13:58:00;;;;;;;9.88;2.28;;;22.40;58.90;;;;;;4963436;28;94941;-83